Airfield :
LOGIN :

Register | Disclaimer

   EN    FR    IT 

 










Legend :    VFR   Marginal VFR   IFR   Intensive IFR   Very Intensive IFR
Visi :
Ceiling :
>= 8 km
>= 3000ft
5 to 8 km
1000 to 3000 ft
1500m to 5 km
500 to 1000 ft
800 to 1500m
200 to 500 ft
< 800m
< 200 ft
Symbols :   Thunderstorms  Fog  Heavy snow  Heavy precipitations  Wind > 20 kt
SIGMETs :     Misc.  Thunderstorms  Icing  Turbulence  Mountain Waves  Volcanic Ashes







- Airport Elevation : -15 ft
- IATA code : RTM


EHRD - Rotterdam Zestienhoven

CURRENT METAR :
  • 272255Z AUTO 14003KT 120V180 9999 NSC 20/17 Q1017 NOSIG

EXPIRED METARs :
  • 272225Z AUTO 16004KT 130V190 9999 NSC 20/17 Q1017 NOSIG
  • 272155Z AUTO 15005KT 110V190 9999 NSC 20/17 Q1017 NOSIG
  • 272125Z AUTO 12006KT 090V150 9999 NSC 20/17 Q1016 NOSIG
  • 272055Z AUTO 12006KT 090V150 9999 NSC 20/17 Q1016 NOSIG
  • 272025Z AUTO 11007KT 080V140 9999 NSC 21/17 Q1016 TEMPO 7000

TAF TAF EHRD
Valid from the 27 at 18:00 until the 29 at 00:00 UTC


271655Z 2718/2824 14006KT 9999 FEW045 FEW070CB BKN080
PROB30
TEMPO 2718/2720 VRB10G20KT 6000 SHRA TSRA FEW040 SCT060CB
BECMG 2814/2817 04011KT
No reported NOTAMs for that airfield.



MET'MAP, your aeronautical weather chart ! - Copyright ORBIFLY December 2007 - Disclaimer

ORBIFLY MET'MAP TEAM :

Programming & Development : Alexandra Zaïnal
Concept & Development : Baudouin d'Aumeries
Co-Development & Prog : Marc-Olivier Méhu
Technical & hardware support : Manuel Goepfert

Contact : metmap@orbifly.com




SOURCES & CREDITS :

   NOAA